sensor_id;sensor_type;location;lat;lon;timestamp;temperature;humidity
29353;DHT22;16344;50.364;8.944;2023-07-24T00:00:10;20.70;99.90
29353;DHT22;16344;50.364;8.944;2023-07-24T00:02:36;20.70;99.90
29353;DHT22;16344;50.364;8.944;2023-07-24T00:05:01;20.70;99.90
29353;DHT22;16344;50.364;8.944;2023-07-24T00:07:27;20.70;99.90
29353;DHT22;16344;50.364;8.944;2023-07-24T00:09:52;20.70;99.90
29353;DHT22;16344;50.364;8.944;2023-07-24T00:12:18;20.70;99.90
29353;DHT22;16344;50.364;8.944;2023-07-24T00:14:43;20.80;99.90
29353;DHT22;16344;50.364;8.944;2023-07-24T00:17:09;20.90;99.90
29353;DHT22;16344;50.364;8.944;2023-07-24T00:19:34;20.70;99.90
29353;DHT22;16344;50.364;8.944;2023-07-24T00:22:00;20.70;99.90
29353;DHT22;16344;50.364;8.944;2023-07-24T00:24:26;20.60;99.90
29353;DHT22;16344;50.364;8.944;2023-07-24T00:26:52;20.60;99.90
29353;DHT22;16344;50.364;8.944;2023-07-24T00:29:17;20.60;99.90
29353;DHT22;16344;50.364;8.944;2023-07-24T00:31:43;20.50;99.90
29353;DHT22;16344;50.364;8.944;2023-07-24T00:34:08;20.50;99.90
29353;DHT22;16344;50.364;8.944;2023-07-24T00:36:34;20.50;99.90
29353;DHT22;16344;50.364;8.944;2023-07-24T00:38:59;20.40;99.90
29353;DHT22;16344;50.364;8.944;2023-07-24T00:41:25;20.40;99.90
29353;DHT22;16344;50.364;8.944;2023-07-24T00:43:50;20.40;99.90
29353;DHT22;16344;50.364;8.944;2023-07-24T00:46:16;20.40;99.90
29353;DHT22;16344;50.364;8.944;2023-07-24T00:48:41;20.40;99.90
29353;DHT22;16344;50.364;8.944;2023-07-24T00:51:07;20.40;99.90
29353;DHT22;16344;50.364;8.944;2023-07-24T00:53:32;20.40;99.90
29353;DHT22;16344;50.364;8.944;2023-07-24T00:55:58;20.50;99.90
29353;DHT22;16344;50.364;8.944;2023-07-24T00:58:24;20.40;99.90
29353;DHT22;16344;50.364;8.944;2023-07-24T01:00:50;20.50;99.90
29353;DHT22;16344;50.364;8.944;2023-07-24T01:03:15;20.50;99.90
29353;DHT22;16344;50.364;8.944;2023-07-24T01:05:41;20.50;99.90
29353;DHT22;16344;50.364;8.944;2023-07-24T01:08:07;20.50;99.90
29353;DHT22;16344;50.364;8.944;2023-07-24T01:10:33;20.60;99.90
29353;DHT22;16344;50.364;8.944;2023-07-24T01:13:02;20.50;99.90
29353;DHT22;16344;50.364;8.944;2023-07-24T01:15:33;20.60;99.90
29353;DHT22;16344;50.364;8.944;2023-07-24T01:18:01;20.60;99.90
29353;DHT22;16344;50.364;8.944;2023-07-24T01:20:29;20.60;99.90
29353;DHT22;16344;50.364;8.944;2023-07-24T01:25:59;20.70;99.90
29353;DHT22;16344;50.364;8.944;2023-07-24T01:28:25;20.60;99.90
29353;DHT22;16344;50.364;8.944;2023-07-24T01:30:51;20.60;99.90
29353;DHT22;16344;50.364;8.944;2023-07-24T01:33:17;20.50;99.90
29353;DHT22;16344;50.364;8.944;2023-07-24T01:35:44;20.60;99.90
29353;DHT22;16344;50.364;8.944;2023-07-24T01:38:13;20.60;99.90
29353;DHT22;16344;50.364;8.944;2023-07-24T01:40:40;20.60;99.90
29353;DHT22;16344;50.364;8.944;2023-07-24T01:43:06;20.60;99.90
29353;DHT22;16344;50.364;8.944;2023-07-24T01:45:32;20.60;99.90
29353;DHT22;16344;50.364;8.944;2023-07-24T01:47:59;20.60;99.90
29353;DHT22;16344;50.364;8.944;2023-07-24T01:50:25;20.60;99.90
29353;DHT22;16344;50.364;8.944;2023-07-24T01:52:50;20.60;99.90
29353;DHT22;16344;50.364;8.944;2023-07-24T01:55:16;20.50;99.90
29353;DHT22;16344;50.364;8.944;2023-07-24T01:57:41;20.60;99.90
29353;DHT22;16344;50.364;8.944;2023-07-24T02:00:07;20.50;99.90
29353;DHT22;16344;50.364;8.944;2023-07-24T02:02:33;20.60;99.90
29353;DHT22;16344;50.364;8.944;2023-07-24T02:04:59;20.60;99.90
29353;DHT22;16344;50.364;8.944;2023-07-24T02:07:24;20.50;99.90
29353;DHT22;16344;50.364;8.944;2023-07-24T02:09:50;20.60;99.90
29353;DHT22;16344;50.364;8.944;2023-07-24T02:12:15;20.60;99.90
29353;DHT22;16344;50.364;8.944;2023-07-24T02:14:41;20.50;99.90
29353;DHT22;16344;50.364;8.944;2023-07-24T02:17:06;20.60;99.90
29353;DHT22;16344;50.364;8.944;2023-07-24T02:19:32;20.60;99.90
29353;DHT22;16344;50.364;8.944;2023-07-24T02:21:57;20.50;99.90
29353;DHT22;16344;50.364;8.944;2023-07-24T02:24:23;20.50;99.90
29353;DHT22;16344;50.364;8.944;2023-07-24T02:26:48;20.40;99.90
29353;DHT22;16344;50.364;8.944;2023-07-24T02:29:14;20.40;99.90
29353;DHT22;16344;50.364;8.944;2023-07-24T02:31:39;20.50;99.90
29353;DHT22;16344;50.364;8.944;2023-07-24T02:34:05;20.50;99.90
29353;DHT22;16344;50.364;8.944;2023-07-24T02:36:30;20.50;99.90
29353;DHT22;16344;50.364;8.944;2023-07-24T02:38:56;20.60;99.90
29353;DHT22;16344;50.364;8.944;2023-07-24T02:41:21;20.50;99.90
29353;DHT22;16344;50.364;8.944;2023-07-24T02:43:47;20.60;99.90
29353;DHT22;16344;50.364;8.944;2023-07-24T02:46:12;20.60;99.90
29353;DHT22;16344;50.364;8.944;2023-07-24T02:48:38;20.60;99.90
29353;DHT22;16344;50.364;8.944;2023-07-24T02:51:03;20.60;99.90
29353;DHT22;16344;50.364;8.944;2023-07-24T02:53:29;20.70;99.90
29353;DHT22;16344;50.364;8.944;2023-07-24T02:55:54;20.60;99.90
29353;DHT22;16344;50.364;8.944;2023-07-24T02:58:20;20.60;99.90
29353;DHT22;16344;50.364;8.944;2023-07-24T03:00:45;20.50;99.90
29353;DHT22;16344;50.364;8.944;2023-07-24T03:03:11;20.40;99.90
29353;DHT22;16344;50.364;8.944;2023-07-24T03:05:36;20.40;99.90
29353;DHT22;16344;50.364;8.944;2023-07-24T03:08:02;20.50;99.90
29353;DHT22;16344;50.364;8.944;2023-07-24T03:10:28;20.40;99.90
29353;DHT22;16344;50.364;8.944;2023-07-24T03:12:53;20.30;99.90
29353;DHT22;16344;50.364;8.944;2023-07-24T03:15:19;20.30;99.90
29353;DHT22;16344;50.364;8.944;2023-07-24T03:17:44;20.20;99.90
29353;DHT22;16344;50.364;8.944;2023-07-24T03:20:17;20.10;99.90
29353;DHT22;16344;50.364;8.944;2023-07-24T03:22:43;20.20;99.90
29353;DHT22;16344;50.364;8.944;2023-07-24T03:25:11;20.10;99.90
29353;DHT22;16344;50.364;8.944;2023-07-24T03:27:37;20.20;99.90
29353;DHT22;16344;50.364;8.944;2023-07-24T03:30:03;20.20;99.90
29353;DHT22;16344;50.364;8.944;2023-07-24T03:32:29;20.20;99.90
29353;DHT22;16344;50.364;8.944;2023-07-24T03:34:54;20.10;99.90
29353;DHT22;16344;50.364;8.944;2023-07-24T03:37:20;20.10;99.90
29353;DHT22;16344;50.364;8.944;2023-07-24T03:39:45;20.10;99.90
29353;DHT22;16344;50.364;8.944;2023-07-24T03:42:11;20.10;99.90
29353;DHT22;16344;50.364;8.944;2023-07-24T03:44:40;20.00;99.90
29353;DHT22;16344;50.364;8.944;2023-07-24T03:47:06;20.00;99.90
29353;DHT22;16344;50.364;8.944;2023-07-24T03:49:32;20.00;99.90
29353;DHT22;16344;50.364;8.944;2023-07-24T03:51:57;20.10;99.90
29353;DHT22;16344;50.364;8.944;2023-07-24T03:54:23;20.10;99.90
29353;DHT22;16344;50.364;8.944;2023-07-24T03:56:48;19.90;99.90
29353;DHT22;16344;50.364;8.944;2023-07-24T03:59:14;19.90;99.90
29353;DHT22;16344;50.364;8.944;2023-07-24T04:01:39;19.90;99.90
29353;DHT22;16344;50.364;8.944;2023-07-24T04:04:05;19.90;99.90
29353;DHT22;16344;50.364;8.944;2023-07-24T04:06:30;19.90;99.90
29353;DHT22;16344;50.364;8.944;2023-07-24T04:08:56;19.80;99.90
29353;DHT22;16344;50.364;8.944;2023-07-24T04:11:21;19.80;99.90
29353;DHT22;16344;50.364;8.944;2023-07-24T04:13:47;19.80;99.90
29353;DHT22;16344;50.364;8.944;2023-07-24T04:16:12;19.80;99.90
29353;DHT22;16344;50.364;8.944;2023-07-24T04:18:38;19.80;99.90
29353;DHT22;16344;50.364;8.944;2023-07-24T04:21:03;19.90;99.90
29353;DHT22;16344;50.364;8.944;2023-07-24T04:23:29;20.00;99.90
29353;DHT22;16344;50.364;8.944;2023-07-24T04:25:54;20.00;99.90
29353;DHT22;16344;50.364;8.944;2023-07-24T04:28:20;20.10;97.10
29353;DHT22;16344;50.364;8.944;2023-07-24T04:30:45;20.30;59.80
29353;DHT22;16344;50.364;8.944;2023-07-24T04:33:11;20.50;73.60
29353;DHT22;16344;50.364;8.944;2023-07-24T04:35:36;20.60;99.90
29353;DHT22;16344;50.364;8.944;2023-07-24T04:38:02;20.70;99.90
29353;DHT22;16344;50.364;8.944;2023-07-24T04:40:27;21.00;19.40
29353;DHT22;16344;50.364;8.944;2023-07-24T04:42:53;21.10;1.00
29353;DHT22;16344;50.364;8.944;2023-07-24T04:45:18;20.90;1.00
29353;DHT22;16344;50.364;8.944;2023-07-24T04:47:44;20.60;53.60
29353;DHT22;16344;50.364;8.944;2023-07-24T04:50:09;20.50;99.90
29353;DHT22;16344;50.364;8.944;2023-07-24T04:52:35;20.50;99.90
29353;DHT22;16344;50.364;8.944;2023-07-24T04:55:00;20.60;99.90
29353;DHT22;16344;50.364;8.944;2023-07-24T04:57:26;20.90;68.00
29353;DHT22;16344;50.364;8.944;2023-07-24T04:59:51;21.30;1.00
29353;DHT22;16344;50.364;8.944;2023-07-24T05:02:17;21.40;1.00
29353;DHT22;16344;50.364;8.944;2023-07-24T05:04:42;21.50;1.00
29353;DHT22;16344;50.364;8.944;2023-07-24T05:07:08;21.50;1.00
29353;DHT22;16344;50.364;8.944;2023-07-24T05:09:33;21.50;1.00
29353;DHT22;16344;50.364;8.944;2023-07-24T05:11:59;21.50;1.00
29353;DHT22;16344;50.364;8.944;2023-07-24T05:14:24;21.50;1.00
29353;DHT22;16344;50.364;8.944;2023-07-24T05:16:50;21.60;1.00
29353;DHT22;16344;50.364;8.944;2023-07-24T05:19:15;21.80;1.00
29353;DHT22;16344;50.364;8.944;2023-07-24T05:21:41;21.60;1.00
29353;DHT22;16344;50.364;8.944;2023-07-24T05:24:06;21.60;1.00
29353;DHT22;16344;50.364;8.944;2023-07-24T05:26:32;21.50;1.00
29353;DHT22;16344;50.364;8.944;2023-07-24T05:28:58;21.40;1.00
29353;DHT22;16344;50.364;8.944;2023-07-24T05:31:23;21.30;1.00
29353;DHT22;16344;50.364;8.944;2023-07-24T05:33:48;21.20;1.00
29353;DHT22;16344;50.364;8.944;2023-07-24T05:36:14;21.10;1.00
29353;DHT22;16344;50.364;8.944;2023-07-24T05:38:39;21.00;1.00
29353;DHT22;16344;50.364;8.944;2023-07-24T05:41:05;20.80;1.00
29353;DHT22;16344;50.364;8.944;2023-07-24T05:43:31;20.80;1.00
29353;DHT22;16344;50.364;8.944;2023-07-24T05:45:57;20.70;1.00
29353;DHT22;16344;50.364;8.944;2023-07-24T05:48:24;20.70;1.00
29353;DHT22;16344;50.364;8.944;2023-07-24T05:50:50;20.70;1.00
29353;DHT22;16344;50.364;8.944;2023-07-24T05:53:16;20.60;1.00
29353;DHT22;16344;50.364;8.944;2023-07-24T05:55:42;20.70;1.00
29353;DHT22;16344;50.364;8.944;2023-07-24T05:58:08;20.70;1.00
29353;DHT22;16344;50.364;8.944;2023-07-24T06:00:33;20.70;1.00
29353;DHT22;16344;50.364;8.944;2023-07-24T06:02:59;20.80;1.00
29353;DHT22;16344;50.364;8.944;2023-07-24T06:05:25;20.90;1.00
29353;DHT22;16344;50.364;8.944;2023-07-24T06:07:50;20.90;1.00
29353;DHT22;16344;50.364;8.944;2023-07-24T06:10:16;21.20;1.00
29353;DHT22;16344;50.364;8.944;2023-07-24T06:12:41;21.70;1.00
29353;DHT22;16344;50.364;8.944;2023-07-24T06:15:07;22.20;1.00
29353;DHT22;16344;50.364;8.944;2023-07-24T06:17:33;22.40;1.00
29353;DHT22;16344;50.364;8.944;2023-07-24T06:19:58;22.50;1.00
29353;DHT22;16344;50.364;8.944;2023-07-24T06:22:24;22.60;1.00
29353;DHT22;16344;50.364;8.944;2023-07-24T06:24:50;22.70;1.00
29353;DHT22;16344;50.364;8.944;2023-07-24T06:27:16;22.60;1.00
29353;DHT22;16344;50.364;8.944;2023-07-24T06:29:41;22.70;1.00
29353;DHT22;16344;50.364;8.944;2023-07-24T06:32:07;22.80;1.00
29353;DHT22;16344;50.364;8.944;2023-07-24T06:34:33;22.80;1.00
29353;DHT22;16344;50.364;8.944;2023-07-24T06:36:59;22.90;1.00
29353;DHT22;16344;50.364;8.944;2023-07-24T06:39:25;22.90;1.00
29353;DHT22;16344;50.364;8.944;2023-07-24T06:41:54;22.80;1.00
29353;DHT22;16344;50.364;8.944;2023-07-24T06:44:20;22.50;1.00
29353;DHT22;16344;50.364;8.944;2023-07-24T06:46:47;22.40;1.00
29353;DHT22;16344;50.364;8.944;2023-07-24T06:49:12;22.30;1.00
29353;DHT22;16344;50.364;8.944;2023-07-24T06:51:38;22.40;1.00
29353;DHT22;16344;50.364;8.944;2023-07-24T06:54:04;22.50;1.00
29353;DHT22;16344;50.364;8.944;2023-07-24T06:56:30;22.40;1.00
29353;DHT22;16344;50.364;8.944;2023-07-24T06:58:55;22.40;1.00
29353;DHT22;16344;50.364;8.944;2023-07-24T07:01:21;22.40;1.00
29353;DHT22;16344;50.364;8.944;2023-07-24T07:03:46;22.60;1.00
29353;DHT22;16344;50.364;8.944;2023-07-24T07:06:12;22.70;1.00
29353;DHT22;16344;50.364;8.944;2023-07-24T07:08:38;22.90;1.00
29353;DHT22;16344;50.364;8.944;2023-07-24T07:11:03;22.80;1.00
29353;DHT22;16344;50.364;8.944;2023-07-24T07:13:29;22.60;1.00
29353;DHT22;16344;50.364;8.944;2023-07-24T07:15:54;22.50;1.00
29353;DHT22;16344;50.364;8.944;2023-07-24T07:18:20;22.40;1.00
29353;DHT22;16344;50.364;8.944;2023-07-24T07:20:51;22.50;1.00
29353;DHT22;16344;50.364;8.944;2023-07-24T07:23:17;22.50;1.00
29353;DHT22;16344;50.364;8.944;2023-07-24T07:25:43;22.60;1.00
29353;DHT22;16344;50.364;8.944;2023-07-24T07:28:11;22.70;1.00
29353;DHT22;16344;50.364;8.944;2023-07-24T07:30:36;22.80;1.00
29353;DHT22;16344;50.364;8.944;2023-07-24T07:33:02;23.10;1.00
29353;DHT22;16344;50.364;8.944;2023-07-24T07:35:28;23.30;1.00
29353;DHT22;16344;50.364;8.944;2023-07-24T07:37:54;23.40;1.00
29353;DHT22;16344;50.364;8.944;2023-07-24T07:40:20;23.50;1.00
29353;DHT22;16344;50.364;8.944;2023-07-24T07:42:45;23.70;1.00
29353;DHT22;16344;50.364;8.944;2023-07-24T07:45:11;24.00;1.00
29353;DHT22;16344;50.364;8.944;2023-07-24T07:47:37;24.40;1.00
29353;DHT22;16344;50.364;8.944;2023-07-24T07:50:03;24.30;1.00
29353;DHT22;16344;50.364;8.944;2023-07-24T07:52:28;24.40;1.00
29353;DHT22;16344;50.364;8.944;2023-07-24T07:54:54;24.50;1.00
29353;DHT22;16344;50.364;8.944;2023-07-24T07:57:19;24.50;1.00
29353;DHT22;16344;50.364;8.944;2023-07-24T07:59:45;24.40;1.00
29353;DHT22;16344;50.364;8.944;2023-07-24T08:02:10;24.50;1.00
29353;DHT22;16344;50.364;8.944;2023-07-24T08:04:36;24.40;1.00
29353;DHT22;16344;50.364;8.944;2023-07-24T08:07:01;24.40;1.00
29353;DHT22;16344;50.364;8.944;2023-07-24T08:09:27;24.40;1.00
29353;DHT22;16344;50.364;8.944;2023-07-24T08:11:53;24.40;1.00
29353;DHT22;16344;50.364;8.944;2023-07-24T08:14:18;24.50;1.00
29353;DHT22;16344;50.364;8.944;2023-07-24T08:16:44;24.30;1.00
29353;DHT22;16344;50.364;8.944;2023-07-24T08:19:09;24.50;1.00
29353;DHT22;16344;50.364;8.944;2023-07-24T08:21:35;24.50;1.00
29353;DHT22;16344;50.364;8.944;2023-07-24T08:24:01;24.50;1.00
29353;DHT22;16344;50.364;8.944;2023-07-24T08:26:27;24.50;1.00
29353;DHT22;16344;50.364;8.944;2023-07-24T08:28:53;24.30;1.00
29353;DHT22;16344;50.364;8.944;2023-07-24T08:31:19;24.20;1.00
29353;DHT22;16344;50.364;8.944;2023-07-24T08:33:44;24.00;1.00
29353;DHT22;16344;50.364;8.944;2023-07-24T08:36:10;24.10;1.00
29353;DHT22;16344;50.364;8.944;2023-07-24T08:38:37;24.00;1.00
29353;DHT22;16344;50.364;8.944;2023-07-24T08:41:08;24.20;1.00
29353;DHT22;16344;50.364;8.944;2023-07-24T08:43:35;24.20;1.00
29353;DHT22;16344;50.364;8.944;2023-07-24T08:46:02;24.20;1.00
29353;DHT22;16344;50.364;8.944;2023-07-24T08:48:39;24.20;1.00
29353;DHT22;16344;50.364;8.944;2023-07-24T08:51:12;24.20;1.00
29353;DHT22;16344;50.364;8.944;2023-07-24T08:53:42;24.20;1.00
29353;DHT22;16344;50.364;8.944;2023-07-24T08:56:09;24.10;1.00
29353;DHT22;16344;50.364;8.944;2023-07-24T08:58:36;24.10;1.00
29353;DHT22;16344;50.364;8.944;2023-07-24T09:01:03;24.30;1.00
29353;DHT22;16344;50.364;8.944;2023-07-24T09:03:30;24.50;1.00
29353;DHT22;16344;50.364;8.944;2023-07-24T09:05:56;24.60;1.00
29353;DHT22;16344;50.364;8.944;2023-07-24T09:08:54;24.80;1.00
29353;DHT22;16344;50.364;8.944;2023-07-24T09:11:19;25.00;1.00
29353;DHT22;16344;50.364;8.944;2023-07-24T09:13:45;25.10;1.00
29353;DHT22;16344;50.364;8.944;2023-07-24T09:16:24;25.30;1.00
29353;DHT22;16344;50.364;8.944;2023-07-24T09:18:50;25.50;1.00
29353;DHT22;16344;50.364;8.944;2023-07-24T09:21:29;25.80;1.00
29353;DHT22;16344;50.364;8.944;2023-07-24T09:23:55;26.00;1.00
29353;DHT22;16344;50.364;8.944;2023-07-24T09:26:20;26.30;1.00
29353;DHT22;16344;50.364;8.944;2023-07-24T09:28:53;26.50;1.00
29353;DHT22;16344;50.364;8.944;2023-07-24T09:31:19;26.70;1.00
29353;DHT22;16344;50.364;8.944;2023-07-24T09:33:44;26.80;1.00
29353;DHT22;16344;50.364;8.944;2023-07-24T09:36:10;26.60;1.00
29353;DHT22;16344;50.364;8.944;2023-07-24T09:38:37;26.60;1.00
29353;DHT22;16344;50.364;8.944;2023-07-24T09:41:03;26.60;1.00
29353;DHT22;16344;50.364;8.944;2023-07-24T09:43:30;26.90;1.00
29353;DHT22;16344;50.364;8.944;2023-07-24T09:45:56;27.10;1.00
29353;DHT22;16344;50.364;8.944;2023-07-24T09:48:26;26.90;1.00
29353;DHT22;16344;50.364;8.944;2023-07-24T09:50:55;26.80;1.00
29353;DHT22;16344;50.364;8.944;2023-07-24T09:53:33;26.60;1.00
29353;DHT22;16344;50.364;8.944;2023-07-24T09:56:05;26.40;1.00
29353;DHT22;16344;50.364;8.944;2023-07-24T09:58:36;26.20;1.00
29353;DHT22;16344;50.364;8.944;2023-07-24T10:01:08;26.10;1.00
29353;DHT22;16344;50.364;8.944;2023-07-24T10:03:39;26.10;1.00
29353;DHT22;16344;50.364;8.944;2023-07-24T10:06:05;26.30;1.00
29353;DHT22;16344;50.364;8.944;2023-07-24T10:08:31;26.70;1.00
29353;DHT22;16344;50.364;8.944;2023-07-24T10:11:00;26.80;1.00
29353;DHT22;16344;50.364;8.944;2023-07-24T10:13:27;26.80;1.00
29353;DHT22;16344;50.364;8.944;2023-07-24T10:15:53;26.80;1.00
29353;DHT22;16344;50.364;8.944;2023-07-24T10:18:28;27.00;1.00
29353;DHT22;16344;50.364;8.944;2023-07-24T10:21:06;27.00;1.00
29353;DHT22;16344;50.364;8.944;2023-07-24T10:23:50;26.90;1.00
29353;DHT22;16344;50.364;8.944;2023-07-24T10:26:15;26.70;1.00
29353;DHT22;16344;50.364;8.944;2023-07-24T10:28:42;26.80;1.00
29353;DHT22;16344;50.364;8.944;2023-07-24T10:31:24;26.70;1.00
29353;DHT22;16344;50.364;8.944;2023-07-24T10:33:53;26.50;1.00
29353;DHT22;16344;50.364;8.944;2023-07-24T10:36:22;26.30;1.00
29353;DHT22;16344;50.364;8.944;2023-07-24T10:38:55;26.30;1.00
29353;DHT22;16344;50.364;8.944;2023-07-24T10:41:22;26.30;1.00
29353;DHT22;16344;50.364;8.944;2023-07-24T10:43:49;26.30;1.00
29353;DHT22;16344;50.364;8.944;2023-07-24T10:46:17;26.30;1.00
29353;DHT22;16344;50.364;8.944;2023-07-24T10:48:46;26.30;1.00
29353;DHT22;16344;50.364;8.944;2023-07-24T10:51:12;26.30;1.00
29353;DHT22;16344;50.364;8.944;2023-07-24T10:53:45;26.50;1.00
29353;DHT22;16344;50.364;8.944;2023-07-24T10:56:12;26.60;1.00
29353;DHT22;16344;50.364;8.944;2023-07-24T10:58:38;26.70;1.00
29353;DHT22;16344;50.364;8.944;2023-07-24T11:01:05;26.60;1.00
29353;DHT22;16344;50.364;8.944;2023-07-24T11:03:31;26.60;1.00
29353;DHT22;16344;50.364;8.944;2023-07-24T11:05:57;26.70;1.00
29353;DHT22;16344;50.364;8.944;2023-07-24T11:08:23;26.80;1.00
29353;DHT22;16344;50.364;8.944;2023-07-24T11:10:56;26.80;1.00
29353;DHT22;16344;50.364;8.944;2023-07-24T11:13:27;26.90;1.00
29353;DHT22;16344;50.364;8.944;2023-07-24T11:15:53;26.80;1.00
29353;DHT22;16344;50.364;8.944;2023-07-24T11:18:19;26.80;1.00
29353;DHT22;16344;50.364;8.944;2023-07-24T11:20:54;26.90;1.00
29353;DHT22;16344;50.364;8.944;2023-07-24T11:23:20;27.10;1.00
29353;DHT22;16344;50.364;8.944;2023-07-24T11:25:46;27.10;1.00
29353;DHT22;16344;50.364;8.944;2023-07-24T11:28:13;27.00;1.00
29353;DHT22;16344;50.364;8.944;2023-07-24T11:30:40;27.10;1.00
29353;DHT22;16344;50.364;8.944;2023-07-24T11:33:08;27.00;1.00
29353;DHT22;16344;50.364;8.944;2023-07-24T11:35:34;27.10;1.00
29353;DHT22;16344;50.364;8.944;2023-07-24T11:38:01;27.00;1.00
29353;DHT22;16344;50.364;8.944;2023-07-24T11:40:35;26.90;1.00
29353;DHT22;16344;50.364;8.944;2023-07-24T11:43:01;26.90;99.90
29353;DHT22;16344;50.364;8.944;2023-07-24T11:45:27;26.90;99.90
29353;DHT22;16344;50.364;8.944;2023-07-24T11:47:53;27.10;99.90
29353;DHT22;16344;50.364;8.944;2023-07-24T11:50:19;27.30;99.90
29353;DHT22;16344;50.364;8.944;2023-07-24T11:52:47;27.30;99.90
29353;DHT22;16344;50.364;8.944;2023-07-24T11:55:15;27.40;99.90
29353;DHT22;16344;50.364;8.944;2023-07-24T11:57:41;27.40;99.90
29353;DHT22;16344;50.364;8.944;2023-07-24T12:00:18;27.40;99.90
29353;DHT22;16344;50.364;8.944;2023-07-24T12:02:44;27.20;99.90
29353;DHT22;16344;50.364;8.944;2023-07-24T12:05:10;26.90;99.90
29353;DHT22;16344;50.364;8.944;2023-07-24T12:07:36;26.90;99.90
29353;DHT22;16344;50.364;8.944;2023-07-24T12:10:03;27.00;99.90
29353;DHT22;16344;50.364;8.944;2023-07-24T12:12:46;26.90;99.90
29353;DHT22;16344;50.364;8.944;2023-07-24T12:15:12;27.00;99.90
29353;DHT22;16344;50.364;8.944;2023-07-24T12:17:39;27.00;99.90
29353;DHT22;16344;50.364;8.944;2023-07-24T12:20:05;27.00;99.90
29353;DHT22;16344;50.364;8.944;2023-07-24T12:22:33;27.40;99.90
29353;DHT22;16344;50.364;8.944;2023-07-24T12:24:59;27.60;99.90
29353;DHT22;16344;50.364;8.944;2023-07-24T12:27:24;27.60;99.90
29353;DHT22;16344;50.364;8.944;2023-07-24T12:29:51;27.50;99.90
29353;DHT22;16344;50.364;8.944;2023-07-24T12:32:17;27.20;99.90
29353;DHT22;16344;50.364;8.944;2023-07-24T12:34:47;27.00;99.90
29353;DHT22;16344;50.364;8.944;2023-07-24T12:37:12;27.00;99.90
29353;DHT22;16344;50.364;8.944;2023-07-24T12:39:38;27.00;99.90
29353;DHT22;16344;50.364;8.944;2023-07-24T12:42:05;27.30;99.90
29353;DHT22;16344;50.364;8.944;2023-07-24T12:44:30;27.40;99.90
29353;DHT22;16344;50.364;8.944;2023-07-24T12:46:56;27.60;99.90
29353;DHT22;16344;50.364;8.944;2023-07-24T12:49:21;27.70;99.90
29353;DHT22;16344;50.364;8.944;2023-07-24T12:51:47;27.50;99.90
29353;DHT22;16344;50.364;8.944;2023-07-24T12:54:12;27.40;99.90
29353;DHT22;16344;50.364;8.944;2023-07-24T12:56:39;27.40;99.90
29353;DHT22;16344;50.364;8.944;2023-07-24T12:59:04;27.70;99.90
29353;DHT22;16344;50.364;8.944;2023-07-24T13:01:30;27.80;99.90
29353;DHT22;16344;50.364;8.944;2023-07-24T13:03:55;27.60;99.90
29353;DHT22;16344;50.364;8.944;2023-07-24T13:06:21;27.60;99.90
29353;DHT22;16344;50.364;8.944;2023-07-24T13:08:47;27.80;99.90
29353;DHT22;16344;50.364;8.944;2023-07-24T13:11:13;27.80;99.90
29353;DHT22;16344;50.364;8.944;2023-07-24T13:13:38;27.80;99.90
29353;DHT22;16344;50.364;8.944;2023-07-24T13:16:04;27.80;99.90
29353;DHT22;16344;50.364;8.944;2023-07-24T13:18:29;27.60;99.90
29353;DHT22;16344;50.364;8.944;2023-07-24T13:20:58;27.40;99.90
29353;DHT22;16344;50.364;8.944;2023-07-24T13:23:24;27.10;99.90
29353;DHT22;16344;50.364;8.944;2023-07-24T13:25:51;27.10;99.90
29353;DHT22;16344;50.364;8.944;2023-07-24T13:28:16;26.80;99.90
29353;DHT22;16344;50.364;8.944;2023-07-24T13:30:42;26.90;99.90
29353;DHT22;16344;50.364;8.944;2023-07-24T13:33:07;26.90;99.90
29353;DHT22;16344;50.364;8.944;2023-07-24T13:35:33;27.00;99.90
29353;DHT22;16344;50.364;8.944;2023-07-24T13:37:58;27.00;99.90
29353;DHT22;16344;50.364;8.944;2023-07-24T13:40:24;27.20;99.90
29353;DHT22;16344;50.364;8.944;2023-07-24T13:42:49;27.10;99.90
29353;DHT22;16344;50.364;8.944;2023-07-24T13:45:15;27.10;99.90
29353;DHT22;16344;50.364;8.944;2023-07-24T13:47:41;27.00;99.90
29353;DHT22;16344;50.364;8.944;2023-07-24T13:50:07;27.00;99.90
29353;DHT22;16344;50.364;8.944;2023-07-24T13:52:33;27.00;99.90
29353;DHT22;16344;50.364;8.944;2023-07-24T13:54:58;27.20;99.90
29353;DHT22;16344;50.364;8.944;2023-07-24T13:57:24;27.70;99.90
29353;DHT22;16344;50.364;8.944;2023-07-24T13:59:49;28.00;99.90
29353;DHT22;16344;50.364;8.944;2023-07-24T14:02:15;28.10;99.90
29353;DHT22;16344;50.364;8.944;2023-07-24T14:04:40;28.10;99.90
29353;DHT22;16344;50.364;8.944;2023-07-24T14:07:06;28.30;99.90
29353;DHT22;16344;50.364;8.944;2023-07-24T14:09:31;28.50;99.90
29353;DHT22;16344;50.364;8.944;2023-07-24T14:11:59;28.50;99.90
29353;DHT22;16344;50.364;8.944;2023-07-24T14:14:26;28.50;99.90
29353;DHT22;16344;50.364;8.944;2023-07-24T14:16:51;28.60;99.90
29353;DHT22;16344;50.364;8.944;2023-07-24T14:19:17;28.50;99.90
29353;DHT22;16344;50.364;8.944;2023-07-24T14:21:44;28.30;99.90
29353;DHT22;16344;50.364;8.944;2023-07-24T14:24:10;27.90;99.90
29353;DHT22;16344;50.364;8.944;2023-07-24T14:26:35;27.60;99.90
29353;DHT22;16344;50.364;8.944;2023-07-24T14:29:04;27.20;99.90
29353;DHT22;16344;50.364;8.944;2023-07-24T14:31:30;27.10;99.90
29353;DHT22;16344;50.364;8.944;2023-07-24T14:33:55;26.90;99.90
29353;DHT22;16344;50.364;8.944;2023-07-24T14:36:21;26.70;99.90
29353;DHT22;16344;50.364;8.944;2023-07-24T14:38:47;26.20;1.00
29353;DHT22;16344;50.364;8.944;2023-07-24T14:41:12;25.20;1.00
29353;DHT22;16344;50.364;8.944;2023-07-24T14:43:40;24.90;1.00
29353;DHT22;16344;50.364;8.944;2023-07-24T14:46:05;24.70;1.00
29353;DHT22;16344;50.364;8.944;2023-07-24T14:48:31;24.20;1.00
29353;DHT22;16344;50.364;8.944;2023-07-24T14:50:56;23.70;1.00
29353;DHT22;16344;50.364;8.944;2023-07-24T14:53:22;23.10;1.00
29353;DHT22;16344;50.364;8.944;2023-07-24T14:55:47;23.00;1.00
29353;DHT22;16344;50.364;8.944;2023-07-24T14:58:13;22.90;22.10
29353;DHT22;16344;50.364;8.944;2023-07-24T15:00:38;22.70;88.10
29353;DHT22;16344;50.364;8.944;2023-07-24T15:03:04;22.50;99.90
29353;DHT22;16344;50.364;8.944;2023-07-24T15:05:29;22.30;99.90
29353;DHT22;16344;50.364;8.944;2023-07-24T15:07:55;22.30;99.90
29353;DHT22;16344;50.364;8.944;2023-07-24T15:10:20;22.30;99.90
29353;DHT22;16344;50.364;8.944;2023-07-24T15:12:47;22.30;99.90
29353;DHT22;16344;50.364;8.944;2023-07-24T15:15:12;22.50;99.90
29353;DHT22;16344;50.364;8.944;2023-07-24T15:17:38;22.70;1.00
29353;DHT22;16344;50.364;8.944;2023-07-24T15:20:05;23.00;1.00
29353;DHT22;16344;50.364;8.944;2023-07-24T15:22:30;23.20;99.90
29353;DHT22;16344;50.364;8.944;2023-07-24T15:24:57;23.30;99.90
29353;DHT22;16344;50.364;8.944;2023-07-24T15:27:22;23.60;99.90
29353;DHT22;16344;50.364;8.944;2023-07-24T15:29:48;23.70;99.90
29353;DHT22;16344;50.364;8.944;2023-07-24T15:32:13;23.80;99.90
29353;DHT22;16344;50.364;8.944;2023-07-24T15:34:39;23.80;99.90